sensor_id;sensor_type;location;lat;lon;timestamp;P1;durP1;ratioP1;P2;durP2;ratioP2
17631;SDS011;8934;51.194;17.150;2023-12-20T00:01:20;8.88;;;5.00;;
17631;SDS011;8934;51.194;17.150;2023-12-20T00:04:08;9.73;;;4.10;;
17631;SDS011;8934;51.194;17.150;2023-12-20T00:06:56;9.48;;;4.50;;
17631;SDS011;8934;51.194;17.150;2023-12-20T00:09:43;14.57;;;5.38;;
17631;SDS011;8934;51.194;17.150;2023-12-20T00:12:31;6.10;;;4.03;;
17631;SDS011;8934;51.194;17.150;2023-12-20T00:15:18;8.57;;;4.60;;
17631;SDS011;8934;51.194;17.150;2023-12-20T00:18:07;11.27;;;5.47;;
17631;SDS011;8934;51.194;17.150;2023-12-20T00:20:55;10.18;;;4.35;;
17631;SDS011;8934;51.194;17.150;2023-12-20T00:23:43;18.27;;;5.82;;
17631;SDS011;8934;51.194;17.150;2023-12-20T00:26:30;12.07;;;4.97;;
17631;SDS011;8934;51.194;17.150;2023-12-20T00:29:18;7.72;;;4.88;;
17631;SDS011;8934;51.194;17.150;2023-12-20T00:32:06;12.05;;;5.93;;
17631;SDS011;8934;51.194;17.150;2023-12-20T00:34:55;9.27;;;4.45;;
17631;SDS011;8934;51.194;17.150;2023-12-20T00:37:43;7.28;;;5.32;;
17631;SDS011;8934;51.194;17.150;2023-12-20T00:40:30;7.70;;;4.05;;
17631;SDS011;8934;51.194;17.150;2023-12-20T00:43:18;8.75;;;4.40;;
17631;SDS011;8934;51.194;17.150;2023-12-20T00:46:06;17.63;;;5.35;;
17631;SDS011;8934;51.194;17.150;2023-12-20T00:48:54;8.77;;;5.18;;
17631;SDS011;8934;51.194;17.150;2023-12-20T00:51:42;12.30;;;5.40;;
17631;SDS011;8934;51.194;17.150;2023-12-20T00:54:30;7.85;;;4.70;;
17631;SDS011;8934;51.194;17.150;2023-12-20T00:57:18;7.97;;;4.65;;
17631;SDS011;8934;51.194;17.150;2023-12-20T01:00:06;6.70;;;3.83;;
17631;SDS011;8934;51.194;17.150;2023-12-20T01:02:55;11.02;;;4.00;;
17631;SDS011;8934;51.194;17.150;2023-12-20T01:05:42;8.02;;;3.70;;
17631;SDS011;8934;51.194;17.150;2023-12-20T01:08:31;8.10;;;4.30;;
17631;SDS011;8934;51.194;17.150;2023-12-20T01:11:21;8.88;;;4.95;;
17631;SDS011;8934;51.194;17.150;2023-12-20T01:14:08;5.65;;;3.45;;
17631;SDS011;8934;51.194;17.150;2023-12-20T01:16:56;7.22;;;4.18;;
17631;SDS011;8934;51.194;17.150;2023-12-20T01:19:43;7.75;;;3.75;;
17631;SDS011;8934;51.194;17.150;2023-12-20T01:22:31;9.15;;;4.57;;
17631;SDS011;8934;51.194;17.150;2023-12-20T01:25:23;10.10;;;5.07;;
17631;SDS011;8934;51.194;17.150;2023-12-20T01:28:10;8.02;;;4.20;;
17631;SDS011;8934;51.194;17.150;2023-12-20T01:30:58;11.73;;;5.38;;
17631;SDS011;8934;51.194;17.150;2023-12-20T01:33:46;6.05;;;4.03;;
17631;SDS011;8934;51.194;17.150;2023-12-20T01:36:33;7.40;;;3.83;;
17631;SDS011;8934;51.194;17.150;2023-12-20T01:39:21;7.65;;;3.90;;
17631;SDS011;8934;51.194;17.150;2023-12-20T01:42:15;11.85;;;4.97;;
17631;SDS011;8934;51.194;17.150;2023-12-20T01:45:03;10.07;;;4.43;;
17631;SDS011;8934;51.194;17.150;2023-12-20T01:47:52;6.78;;;3.70;;
17631;SDS011;8934;51.194;17.150;2023-12-20T01:50:40;5.40;;;3.30;;
17631;SDS011;8934;51.194;17.150;2023-12-20T01:53:28;6.45;;;3.33;;
17631;SDS011;8934;51.194;17.150;2023-12-20T01:56:17;6.63;;;3.33;;
17631;SDS011;8934;51.194;17.150;2023-12-20T01:59:06;3.63;;;2.67;;
17631;SDS011;8934;51.194;17.150;2023-12-20T02:01:54;6.85;;;3.47;;
17631;SDS011;8934;51.194;17.150;2023-12-20T02:04:42;5.35;;;2.97;;
17631;SDS011;8934;51.194;17.150;2023-12-20T02:07:30;5.65;;;3.20;;
17631;SDS011;8934;51.194;17.150;2023-12-20T02:10:18;4.78;;;2.97;;
17631;SDS011;8934;51.194;17.150;2023-12-20T02:13:06;5.32;;;3.15;;
17631;SDS011;8934;51.194;17.150;2023-12-20T02:15:55;6.97;;;3.38;;
17631;SDS011;8934;51.194;17.150;2023-12-20T02:18:43;6.95;;;3.25;;
17631;SDS011;8934;51.194;17.150;2023-12-20T02:21:33;8.63;;;3.47;;
17631;SDS011;8934;51.194;17.150;2023-12-20T02:24:21;5.55;;;3.58;;
17631;SDS011;8934;51.194;17.150;2023-12-20T02:27:08;5.47;;;3.35;;
17631;SDS011;8934;51.194;17.150;2023-12-20T02:29:56;5.25;;;3.05;;
17631;SDS011;8934;51.194;17.150;2023-12-20T02:32:43;5.15;;;2.72;;
17631;SDS011;8934;51.194;17.150;2023-12-20T02:35:31;5.07;;;2.85;;
17631;SDS011;8934;51.194;17.150;2023-12-20T02:38:20;3.00;;;2.40;;
17631;SDS011;8934;51.194;17.150;2023-12-20T02:41:08;5.57;;;2.35;;
17631;SDS011;8934;51.194;17.150;2023-12-20T02:43:56;3.13;;;2.35;;
17631;SDS011;8934;51.194;17.150;2023-12-20T02:46:43;3.08;;;1.52;;
17631;SDS011;8934;51.194;17.150;2023-12-20T02:49:31;3.13;;;1.92;;
17631;SDS011;8934;51.194;17.150;2023-12-20T02:52:18;3.10;;;1.92;;
17631;SDS011;8934;51.194;17.150;2023-12-20T02:55:07;3.20;;;1.55;;
17631;SDS011;8934;51.194;17.150;2023-12-20T02:57:55;2.50;;;0.93;;
17631;SDS011;8934;51.194;17.150;2023-12-20T03:00:43;2.05;;;1.35;;
17631;SDS011;8934;51.194;17.150;2023-12-20T03:03:31;1.88;;;1.15;;
17631;SDS011;8934;51.194;17.150;2023-12-20T03:06:18;2.22;;;1.23;;
17631;SDS011;8934;51.194;17.150;2023-12-20T03:09:06;1.95;;;0.90;;
17631;SDS011;8934;51.194;17.150;2023-12-20T03:11:55;2.47;;;1.52;;
17631;SDS011;8934;51.194;17.150;2023-12-20T03:14:43;2.28;;;1.30;;
17631;SDS011;8934;51.194;17.150;2023-12-20T03:17:30;3.38;;;1.85;;
17631;SDS011;8934;51.194;17.150;2023-12-20T03:20:18;2.88;;;1.70;;
17631;SDS011;8934;51.194;17.150;2023-12-20T03:23:05;4.78;;;1.63;;
17631;SDS011;8934;51.194;17.150;2023-12-20T03:25:53;2.95;;;1.83;;
17631;SDS011;8934;51.194;17.150;2023-12-20T03:28:42;1.90;;;1.60;;
17631;SDS011;8934;51.194;17.150;2023-12-20T03:31:29;3.67;;;1.88;;
17631;SDS011;8934;51.194;17.150;2023-12-20T03:34:17;2.15;;;1.15;;
17631;SDS011;8934;51.194;17.150;2023-12-20T03:37:04;2.00;;;1.15;;
17631;SDS011;8934;51.194;17.150;2023-12-20T03:39:52;1.30;;;1.00;;
17631;SDS011;8934;51.194;17.150;2023-12-20T03:42:39;3.60;;;1.33;;
17631;SDS011;8934;51.194;17.150;2023-12-20T03:45:28;2.90;;;1.23;;
17631;SDS011;8934;51.194;17.150;2023-12-20T03:48:16;2.63;;;1.30;;
17631;SDS011;8934;51.194;17.150;2023-12-20T03:51:03;1.70;;;0.63;;
17631;SDS011;8934;51.194;17.150;2023-12-20T03:53:51;3.95;;;1.30;;
17631;SDS011;8934;51.194;17.150;2023-12-20T03:56:39;2.08;;;1.13;;
17631;SDS011;8934;51.194;17.150;2023-12-20T03:59:26;1.50;;;1.02;;
17631;SDS011;8934;51.194;17.150;2023-12-20T04:02:15;4.72;;;1.92;;
17631;SDS011;8934;51.194;17.150;2023-12-20T04:05:04;2.53;;;1.27;;
17631;SDS011;8934;51.194;17.150;2023-12-20T04:07:52;1.27;;;0.75;;
17631;SDS011;8934;51.194;17.150;2023-12-20T04:10:40;1.10;;;0.70;;
17631;SDS011;8934;51.194;17.150;2023-12-20T04:13:27;1.05;;;0.73;;
17631;SDS011;8934;51.194;17.150;2023-12-20T04:16:15;1.70;;;0.60;;
17631;SDS011;8934;51.194;17.150;2023-12-20T04:19:05;1.83;;;0.80;;
17631;SDS011;8934;51.194;17.150;2023-12-20T04:21:52;3.00;;;1.20;;
17631;SDS011;8934;51.194;17.150;2023-12-20T04:24:40;4.45;;;1.30;;
17631;SDS011;8934;51.194;17.150;2023-12-20T04:27:28;1.92;;;1.05;;
17631;SDS011;8934;51.194;17.150;2023-12-20T04:30:15;1.67;;;1.15;;
17631;SDS011;8934;51.194;17.150;2023-12-20T04:33:03;1.75;;;1.17;;
17631;SDS011;8934;51.194;17.150;2023-12-20T04:35:52;2.17;;;1.20;;
17631;SDS011;8934;51.194;17.150;2023-12-20T04:38:40;0.85;;;0.70;;
17631;SDS011;8934;51.194;17.150;2023-12-20T04:41:27;1.40;;;0.98;;
17631;SDS011;8934;51.194;17.150;2023-12-20T04:44:15;1.52;;;0.73;;
17631;SDS011;8934;51.194;17.150;2023-12-20T04:47:02;1.35;;;0.70;;
17631;SDS011;8934;51.194;17.150;2023-12-20T04:49:50;0.40;;;0.40;;
17631;SDS011;8934;51.194;17.150;2023-12-20T04:52:39;3.05;;;1.15;;
17631;SDS011;8934;51.194;17.150;2023-12-20T04:55:27;1.20;;;0.60;;
17631;SDS011;8934;51.194;17.150;2023-12-20T04:58:15;1.67;;;0.85;;
17631;SDS011;8934;51.194;17.150;2023-12-20T05:01:03;1.55;;;0.73;;
17631;SDS011;8934;51.194;17.150;2023-12-20T05:03:53;3.08;;;1.15;;
17631;SDS011;8934;51.194;17.150;2023-12-20T05:06:41;6.07;;;2.03;;
17631;SDS011;8934;51.194;17.150;2023-12-20T05:09:30;3.50;;;1.15;;
17631;SDS011;8934;51.194;17.150;2023-12-20T05:12:17;2.22;;;1.88;;
17631;SDS011;8934;51.194;17.150;2023-12-20T05:15:06;11.10;;;3.30;;
17631;SDS011;8934;51.194;17.150;2023-12-20T05:17:54;6.13;;;3.15;;
17631;SDS011;8934;51.194;17.150;2023-12-20T05:20:41;2.08;;;1.05;;
17631;SDS011;8934;51.194;17.150;2023-12-20T05:23:29;1.95;;;1.13;;
17631;SDS011;8934;51.194;17.150;2023-12-20T05:26:18;3.72;;;1.42;;
17631;SDS011;8934;51.194;17.150;2023-12-20T05:29:05;2.08;;;0.77;;
17631;SDS011;8934;51.194;17.150;2023-12-20T05:31:53;1.85;;;0.82;;
17631;SDS011;8934;51.194;17.150;2023-12-20T05:34:41;2.97;;;1.33;;
17631;SDS011;8934;51.194;17.150;2023-12-20T05:37:29;1.83;;;0.80;;
17631;SDS011;8934;51.194;17.150;2023-12-20T05:40:17;1.10;;;0.70;;
17631;SDS011;8934;51.194;17.150;2023-12-20T05:43:06;1.45;;;0.98;;
17631;SDS011;8934;51.194;17.150;2023-12-20T05:45:54;1.98;;;1.17;;
17631;SDS011;8934;51.194;17.150;2023-12-20T05:48:41;1.33;;;1.00;;
17631;SDS011;8934;51.194;17.150;2023-12-20T05:51:29;6.75;;;1.95;;
17631;SDS011;8934;51.194;17.150;2023-12-20T05:54:16;12.13;;;1.63;;
17631;SDS011;8934;51.194;17.150;2023-12-20T05:57:04;2.55;;;1.55;;
17631;SDS011;8934;51.194;17.150;2023-12-20T05:59:53;2.55;;;1.40;;
17631;SDS011;8934;51.194;17.150;2023-12-20T06:02:41;1.90;;;1.70;;
17631;SDS011;8934;51.194;17.150;2023-12-20T06:05:28;2.53;;;1.67;;
17631;SDS011;8934;51.194;17.150;2023-12-20T06:08:16;1.65;;;1.30;;
17631;SDS011;8934;51.194;17.150;2023-12-20T06:11:04;2.80;;;1.52;;
17631;SDS011;8934;51.194;17.150;2023-12-20T06:13:52;2.28;;;1.10;;
17631;SDS011;8934;51.194;17.150;2023-12-20T06:16:40;2.03;;;1.23;;
17631;SDS011;8934;51.194;17.150;2023-12-20T06:19:28;3.50;;;1.83;;
17631;SDS011;8934;51.194;17.150;2023-12-20T06:22:16;2.47;;;1.55;;
17631;SDS011;8934;51.194;17.150;2023-12-20T06:25:04;4.03;;;1.38;;
17631;SDS011;8934;51.194;17.150;2023-12-20T06:27:52;2.20;;;1.20;;
17631;SDS011;8934;51.194;17.150;2023-12-20T06:30:40;2.13;;;1.38;;
17631;SDS011;8934;51.194;17.150;2023-12-20T06:33:29;2.63;;;1.50;;
17631;SDS011;8934;51.194;17.150;2023-12-20T06:36:17;2.13;;;1.42;;
17631;SDS011;8934;51.194;17.150;2023-12-20T06:39:05;2.03;;;1.23;;
17631;SDS011;8934;51.194;17.150;2023-12-20T06:41:52;4.38;;;1.52;;
17631;SDS011;8934;51.194;17.150;2023-12-20T06:44:40;2.10;;;1.55;;
17631;SDS011;8934;51.194;17.150;2023-12-20T06:47:27;4.13;;;1.85;;
17631;SDS011;8934;51.194;17.150;2023-12-20T06:50:16;3.58;;;1.63;;
17631;SDS011;8934;51.194;17.150;2023-12-20T06:53:04;1.25;;;0.93;;
17631;SDS011;8934;51.194;17.150;2023-12-20T06:55:53;2.00;;;0.85;;
17631;SDS011;8934;51.194;17.150;2023-12-20T06:58:42;1.70;;;1.25;;
17631;SDS011;8934;51.194;17.150;2023-12-20T07:01:29;1.38;;;1.00;;
17631;SDS011;8934;51.194;17.150;2023-12-20T07:04:17;0.98;;;0.88;;
17631;SDS011;8934;51.194;17.150;2023-12-20T07:07:09;2.55;;;1.20;;
17631;SDS011;8934;51.194;17.150;2023-12-20T07:09:57;2.55;;;0.95;;
17631;SDS011;8934;51.194;17.150;2023-12-20T07:12:44;1.23;;;0.75;;
17631;SDS011;8934;51.194;17.150;2023-12-20T07:15:32;2.83;;;1.17;;
17631;SDS011;8934;51.194;17.150;2023-12-20T07:18:19;2.92;;;1.13;;
17631;SDS011;8934;51.194;17.150;2023-12-20T07:21:07;1.05;;;0.70;;
17631;SDS011;8934;51.194;17.150;2023-12-20T07:23:56;4.43;;;1.23;;
17631;SDS011;8934;51.194;17.150;2023-12-20T07:26:44;1.20;;;1.02;;
17631;SDS011;8934;51.194;17.150;2023-12-20T07:29:31;1.20;;;0.70;;
17631;SDS011;8934;51.194;17.150;2023-12-20T07:32:19;1.40;;;0.57;;
17631;SDS011;8934;51.194;17.150;2023-12-20T07:35:07;1.95;;;1.00;;
17631;SDS011;8934;51.194;17.150;2023-12-20T07:37:55;1.67;;;0.45;;
17631;SDS011;8934;51.194;17.150;2023-12-20T07:40:44;3.30;;;0.90;;
17631;SDS011;8934;51.194;17.150;2023-12-20T07:43:31;0.75;;;0.40;;
17631;SDS011;8934;51.194;17.150;2023-12-20T07:46:20;1.65;;;0.65;;
17631;SDS011;8934;51.194;17.150;2023-12-20T07:49:09;1.15;;;0.50;;
17631;SDS011;8934;51.194;17.150;2023-12-20T07:51:57;1.48;;;0.80;;
17631;SDS011;8934;51.194;17.150;2023-12-20T07:54:44;1.73;;;0.75;;
17631;SDS011;8934;51.194;17.150;2023-12-20T07:57:34;1.23;;;0.50;;
17631;SDS011;8934;51.194;17.150;2023-12-20T08:00:21;0.80;;;0.70;;
17631;SDS011;8934;51.194;17.150;2023-12-20T08:03:09;1.08;;;0.73;;
17631;SDS011;8934;51.194;17.150;2023-12-20T08:05:57;0.40;;;0.40;;
17631;SDS011;8934;51.194;17.150;2023-12-20T08:08:45;1.85;;;0.85;;
17631;SDS011;8934;51.194;17.150;2023-12-20T08:11:46;1.08;;;0.68;;
17631;SDS011;8934;51.194;17.150;2023-12-20T08:14:35;2.05;;;1.10;;
17631;SDS011;8934;51.194;17.150;2023-12-20T08:17:22;0.75;;;0.60;;
17631;SDS011;8934;51.194;17.150;2023-12-20T08:20:10;2.20;;;0.80;;
17631;SDS011;8934;51.194;17.150;2023-12-20T08:23:04;0.85;;;0.80;;
17631;SDS011;8934;51.194;17.150;2023-12-20T08:25:52;0.75;;;0.50;;
17631;SDS011;8934;51.194;17.150;2023-12-20T08:28:39;1.40;;;0.68;;
17631;SDS011;8934;51.194;17.150;2023-12-20T08:31:28;1.75;;;0.70;;
17631;SDS011;8934;51.194;17.150;2023-12-20T08:34:16;1.30;;;0.68;;
17631;SDS011;8934;51.194;17.150;2023-12-20T08:37:04;1.45;;;0.60;;
17631;SDS011;8934;51.194;17.150;2023-12-20T08:39:51;1.40;;;0.65;;
17631;SDS011;8934;51.194;17.150;2023-12-20T08:42:39;1.17;;;0.65;;
17631;SDS011;8934;51.194;17.150;2023-12-20T08:45:26;1.30;;;0.73;;
17631;SDS011;8934;51.194;17.150;2023-12-20T08:48:15;2.25;;;0.65;;
17631;SDS011;8934;51.194;17.150;2023-12-20T08:51:03;1.83;;;1.13;;
17631;SDS011;8934;51.194;17.150;2023-12-20T08:53:53;1.55;;;0.82;;
17631;SDS011;8934;51.194;17.150;2023-12-20T08:56:41;0.73;;;0.73;;
17631;SDS011;8934;51.194;17.150;2023-12-20T08:59:28;1.75;;;0.57;;
17631;SDS011;8934;51.194;17.150;2023-12-20T09:02:16;1.35;;;0.93;;
17631;SDS011;8934;51.194;17.150;2023-12-20T09:05:05;1.73;;;0.70;;
17631;SDS011;8934;51.194;17.150;2023-12-20T09:07:54;2.55;;;0.75;;
17631;SDS011;8934;51.194;17.150;2023-12-20T09:10:41;0.88;;;0.82;;
17631;SDS011;8934;51.194;17.150;2023-12-20T09:13:30;2.95;;;0.50;;
17631;SDS011;8934;51.194;17.150;2023-12-20T09:16:18;1.05;;;0.70;;
17631;SDS011;8934;51.194;17.150;2023-12-20T09:19:06;2.00;;;0.73;;
17631;SDS011;8934;51.194;17.150;2023-12-20T09:21:55;2.67;;;1.17;;
17631;SDS011;8934;51.194;17.150;2023-12-20T09:24:43;1.17;;;0.82;;
17631;SDS011;8934;51.194;17.150;2023-12-20T09:27:30;2.95;;;1.38;;
17631;SDS011;8934;51.194;17.150;2023-12-20T09:30:18;1.00;;;0.85;;
17631;SDS011;8934;51.194;17.150;2023-12-20T09:33:12;1.67;;;1.35;;
17631;SDS011;8934;51.194;17.150;2023-12-20T09:36:00;4.65;;;0.95;;
17631;SDS011;8934;51.194;17.150;2023-12-20T09:38:49;1.13;;;0.70;;
17631;SDS011;8934;51.194;17.150;2023-12-20T09:41:37;2.38;;;1.10;;
17631;SDS011;8934;51.194;17.150;2023-12-20T09:44:30;1.88;;;1.02;;
17631;SDS011;8934;51.194;17.150;2023-12-20T09:47:19;3.03;;;1.35;;
17631;SDS011;8934;51.194;17.150;2023-12-20T09:50:09;1.60;;;0.88;;
17631;SDS011;8934;51.194;17.150;2023-12-20T09:52:58;3.75;;;1.10;;
17631;SDS011;8934;51.194;17.150;2023-12-20T09:55:49;3.10;;;1.25;;
17631;SDS011;8934;51.194;17.150;2023-12-20T09:58:36;3.20;;;1.00;;
17631;SDS011;8934;51.194;17.150;2023-12-20T10:01:25;3.17;;;1.50;;
17631;SDS011;8934;51.194;17.150;2023-12-20T10:04:14;1.25;;;0.82;;
17631;SDS011;8934;51.194;17.150;2023-12-20T10:07:15;2.42;;;1.20;;
17631;SDS011;8934;51.194;17.150;2023-12-20T10:10:03;1.65;;;1.00;;
17631;SDS011;8934;51.194;17.150;2023-12-20T10:13:04;2.17;;;0.85;;
17631;SDS011;8934;51.194;17.150;2023-12-20T10:15:52;2.38;;;1.15;;
17631;SDS011;8934;51.194;17.150;2023-12-20T10:18:42;6.60;;;3.13;;
17631;SDS011;8934;51.194;17.150;2023-12-20T10:21:29;2.35;;;1.48;;
17631;SDS011;8934;51.194;17.150;2023-12-20T10:24:17;2.65;;;1.30;;
17631;SDS011;8934;51.194;17.150;2023-12-20T10:27:05;2.88;;;1.23;;
17631;SDS011;8934;51.194;17.150;2023-12-20T10:29:55;2.13;;;1.17;;
17631;SDS011;8934;51.194;17.150;2023-12-20T10:32:45;1.60;;;0.98;;
17631;SDS011;8934;51.194;17.150;2023-12-20T10:35:33;1.65;;;0.95;;
17631;SDS011;8934;51.194;17.150;2023-12-20T10:38:21;3.17;;;1.50;;
17631;SDS011;8934;51.194;17.150;2023-12-20T10:41:09;1.83;;;1.00;;
17631;SDS011;8934;51.194;17.150;2023-12-20T10:43:59;1.67;;;1.38;;
17631;SDS011;8934;51.194;17.150;2023-12-20T10:46:49;1.85;;;1.33;;
17631;SDS011;8934;51.194;17.150;2023-12-20T10:49:43;1.38;;;0.80;;
17631;SDS011;8934;51.194;17.150;2023-12-20T10:52:32;1.05;;;0.75;;
17631;SDS011;8934;51.194;17.150;2023-12-20T10:55:22;1.58;;;0.88;;
17631;SDS011;8934;51.194;17.150;2023-12-20T10:58:10;1.30;;;1.10;;
17631;SDS011;8934;51.194;17.150;2023-12-20T11:01:00;0.70;;;0.70;;
17631;SDS011;8934;51.194;17.150;2023-12-20T11:03:51;2.10;;;1.02;;
17631;SDS011;8934;51.194;17.150;2023-12-20T11:06:41;0.90;;;0.90;;
17631;SDS011;8934;51.194;17.150;2023-12-20T11:09:36;1.47;;;0.93;;
17631;SDS011;8934;51.194;17.150;2023-12-20T11:12:32;0.75;;;0.68;;
17631;SDS011;8934;51.194;17.150;2023-12-20T11:15:24;1.63;;;0.65;;
17631;SDS011;8934;51.194;17.150;2023-12-20T11:18:13;4.43;;;1.17;;
17631;SDS011;8934;51.194;17.150;2023-12-20T11:21:04;1.95;;;0.73;;
17631;SDS011;8934;51.194;17.150;2023-12-20T11:23:52;1.60;;;0.82;;
17631;SDS011;8934;51.194;17.150;2023-12-20T11:26:41;6.10;;;1.30;;
17631;SDS011;8934;51.194;17.150;2023-12-20T11:29:36;1.45;;;0.90;;
17631;SDS011;8934;51.194;17.150;2023-12-20T11:32:28;1.48;;;0.93;;
17631;SDS011;8934;51.194;17.150;2023-12-20T11:35:17;2.05;;;0.60;;
17631;SDS011;8934;51.194;17.150;2023-12-20T11:38:08;1.23;;;0.50;;
17631;SDS011;8934;51.194;17.150;2023-12-20T11:40:56;2.13;;;0.70;;
17631;SDS011;8934;51.194;17.150;2023-12-20T11:43:49;6.10;;;1.55;;
17631;SDS011;8934;51.194;17.150;2023-12-20T11:46:40;1.70;;;0.95;;
17631;SDS011;8934;51.194;17.150;2023-12-20T11:49:28;1.83;;;0.93;;
17631;SDS011;8934;51.194;17.150;2023-12-20T11:52:16;1.50;;;0.85;;
17631;SDS011;8934;51.194;17.150;2023-12-20T11:55:06;4.47;;;1.20;;
17631;SDS011;8934;51.194;17.150;2023-12-20T11:57:54;0.73;;;0.70;;
17631;SDS011;8934;51.194;17.150;2023-12-20T12:00:42;3.13;;;1.30;;
17631;SDS011;8934;51.194;17.150;2023-12-20T12:03:30;1.52;;;0.60;;
17631;SDS011;8934;51.194;17.150;2023-12-20T12:06:18;2.35;;;0.63;;
17631;SDS011;8934;51.194;17.150;2023-12-20T12:09:06;2.95;;;1.23;;
17631;SDS011;8934;51.194;17.150;2023-12-20T12:11:55;5.45;;;1.05;;
17631;SDS011;8934;51.194;17.150;2023-12-20T12:14:42;1.63;;;0.80;;
17631;SDS011;8934;51.194;17.150;2023-12-20T12:17:32;1.13;;;0.65;;
17631;SDS011;8934;51.194;17.150;2023-12-20T12:20:22;1.00;;;0.75;;
17631;SDS011;8934;51.194;17.150;2023-12-20T12:23:10;1.02;;;0.70;;
17631;SDS011;8934;51.194;17.150;2023-12-20T12:25:58;0.43;;;0.43;;
17631;SDS011;8934;51.194;17.150;2023-12-20T12:28:47;2.35;;;0.77;;
17631;SDS011;8934;51.194;17.150;2023-12-20T12:31:34;3.38;;;1.08;;
17631;SDS011;8934;51.194;17.150;2023-12-20T12:34:22;4.72;;;0.70;;
17631;SDS011;8934;51.194;17.150;2023-12-20T12:37:10;1.63;;;0.80;;
17631;SDS011;8934;51.194;17.150;2023-12-20T12:39:59;0.65;;;0.55;;
17631;SDS011;8934;51.194;17.150;2023-12-20T12:42:47;3.05;;;1.52;;
17631;SDS011;8934;51.194;17.150;2023-12-20T12:45:36;6.10;;;1.30;;
17631;SDS011;8934;51.194;17.150;2023-12-20T12:48:23;2.92;;;1.00;;
17631;SDS011;8934;51.194;17.150;2023-12-20T12:51:11;1.13;;;1.02;;
17631;SDS011;8934;51.194;17.150;2023-12-20T12:53:59;1.45;;;0.85;;
17631;SDS011;8934;51.194;17.150;2023-12-20T12:56:47;3.55;;;1.33;;
17631;SDS011;8934;51.194;17.150;2023-12-20T12:59:36;5.88;;;1.10;;
17631;SDS011;8934;51.194;17.150;2023-12-20T13:02:27;1.50;;;0.55;;
17631;SDS011;8934;51.194;17.150;2023-12-20T13:05:14;4.82;;;1.40;;
17631;SDS011;8934;51.194;17.150;2023-12-20T13:08:04;2.28;;;0.80;;
17631;SDS011;8934;51.194;17.150;2023-12-20T13:10:52;3.75;;;1.00;;
17631;SDS011;8934;51.194;17.150;2023-12-20T13:13:40;0.77;;;0.77;;
17631;SDS011;8934;51.194;17.150;2023-12-20T13:16:28;1.60;;;0.90;;
17631;SDS011;8934;51.194;17.150;2023-12-20T13:19:17;0.50;;;0.47;;
17631;SDS011;8934;51.194;17.150;2023-12-20T13:22:05;1.50;;;0.90;;
17631;SDS011;8934;51.194;17.150;2023-12-20T13:24:53;1.20;;;1.10;;
17631;SDS011;8934;51.194;17.150;2023-12-20T13:27:40;1.02;;;0.85;;
17631;SDS011;8934;51.194;17.150;2023-12-20T13:30:29;1.98;;;0.73;;
17631;SDS011;8934;51.194;17.150;2023-12-20T13:33:17;1.63;;;0.90;;
17631;SDS011;8934;51.194;17.150;2023-12-20T13:36:06;3.17;;;0.50;;
17631;SDS011;8934;51.194;17.150;2023-12-20T13:38:57;5.25;;;1.10;;
17631;SDS011;8934;51.194;17.150;2023-12-20T13:41:45;2.78;;;1.30;;
17631;SDS011;8934;51.194;17.150;2023-12-20T13:44:33;2.92;;;0.98;;
17631;SDS011;8934;51.194;17.150;2023-12-20T13:47:20;4.70;;;1.00;;
17631;SDS011;8934;51.194;17.150;2023-12-20T13:50:10;2.05;;;0.85;;
17631;SDS011;8934;51.194;17.150;2023-12-20T13:52:59;3.38;;;0.95;;
17631;SDS011;8934;51.194;17.150;2023-12-20T13:55:50;1.55;;;0.80;;
17631;SDS011;8934;51.194;17.150;2023-12-20T13:58:37;3.17;;;1.73;;
17631;SDS011;8934;51.194;17.150;2023-12-20T14:01:26;1.40;;;0.85;;
17631;SDS011;8934;51.194;17.150;2023-12-20T14:04:13;1.15;;;0.70;;
17631;SDS011;8934;51.194;17.150;2023-12-20T14:10:10;2.50;;;0.95;;
17631;SDS011;8934;51.194;17.150;2023-12-20T14:12:58;2.72;;;0.75;;
17631;SDS011;8934;51.194;17.150;2023-12-20T14:15:46;0.57;;;0.43;;
17631;SDS011;8934;51.194;17.150;2023-12-20T14:18:35;1.27;;;0.60;;
17631;SDS011;8934;51.194;17.150;2023-12-20T14:21:22;1.67;;;0.90;;
17631;SDS011;8934;51.194;17.150;2023-12-20T14:24:11;0.63;;;0.50;;
17631;SDS011;8934;51.194;17.150;2023-12-20T14:27:01;2.30;;;0.60;;
17631;SDS011;8934;51.194;17.150;2023-12-20T14:29:49;5.80;;;1.58;;
17631;SDS011;8934;51.194;17.150;2023-12-20T14:32:37;2.95;;;1.63;;
17631;SDS011;8934;51.194;17.150;2023-12-20T14:35:24;1.48;;;0.85;;
17631;SDS011;8934;51.194;17.150;2023-12-20T14:38:12;1.02;;;0.90;;
17631;SDS011;8934;51.194;17.150;2023-12-20T14:41:01;7.60;;;1.10;;
17631;SDS011;8934;51.194;17.150;2023-12-20T14:43:51;5.82;;;0.95;;
17631;SDS011;8934;51.194;17.150;2023-12-20T14:46:39;1.83;;;0.77;;
17631;SDS011;8934;51.194;17.150;2023-12-20T14:49:27;2.38;;;1.08;;
17631;SDS011;8934;51.194;17.150;2023-12-20T14:52:14;2.22;;;1.40;;
17631;SDS011;8934;51.194;17.150;2023-12-20T14:55:04;1.02;;;0.73;;
17631;SDS011;8934;51.194;17.150;2023-12-20T14:57:52;4.13;;;1.40;;
17631;SDS011;8934;51.194;17.150;2023-12-20T15:00:41;3.05;;;1.15;;
17631;SDS011;8934;51.194;17.150;2023-12-20T15:03:30;3.40;;;1.10;;
17631;SDS011;8934;51.194;17.150;2023-12-20T15:06:17;9.05;;;1.15;;
17631;SDS011;8934;51.194;17.150;2023-12-20T15:09:06;2.45;;;1.25;;
17631;SDS011;8934;51.194;17.150;2023-12-20T15:11:54;2.00;;;0.70;;
17631;SDS011;8934;51.194;17.150;2023-12-20T15:14:42;2.35;;;1.30;;
17631;SDS011;8934;51.194;17.150;2023-12-20T15:17:32;1.70;;;1.17;;
17631;SDS011;8934;51.194;17.150;2023-12-20T15:20:20;5.25;;;1.13;;
17631;SDS011;8934;51.194;17.150;2023-12-20T15:23:08;1.08;;;0.73;;
17631;SDS011;8934;51.194;17.150;2023-12-20T15:25:55;3.83;;;1.55;;
17631;SDS011;8934;51.194;17.150;2023-12-20T15:28:43;1.08;;;0.70;;
17631;SDS011;8934;51.194;17.150;2023-12-20T15:31:30;0.98;;;0.90;;
17631;SDS011;8934;51.194;17.150;2023-12-20T15:34:19;1.33;;;0.90;;
17631;SDS011;8934;51.194;17.150;2023-12-20T15:37:07;2.05;;;0.93;;
17631;SDS011;8934;51.194;17.150;2023-12-20T15:39:55;5.88;;;1.52;;
17631;SDS011;8934;51.194;17.150;2023-12-20T15:42:42;3.70;;;1.17;;
17631;SDS011;8934;51.194;17.150;2023-12-20T15:45:31;3.38;;;0.85;;
17631;SDS011;8934;51.194;17.150;2023-12-20T15:48:18;4.70;;;1.15;;
17631;SDS011;8934;51.194;17.150;2023-12-20T15:51:08;2.67;;;0.90;;
17631;SDS011;8934;51.194;17.150;2023-12-20T15:53:56;1.25;;;0.90;;
17631;SDS011;8934;51.194;17.150;2023-12-20T15:56:44;9.65;;;1.77;;
17631;SDS011;8934;51.194;17.150;2023-12-20T15:59:33;4.25;;;1.40;;
17631;SDS011;8934;51.194;17.150;2023-12-20T16:02:21;3.75;;;1.30;;
17631;SDS011;8934;51.194;17.150;2023-12-20T16:05:09;2.05;;;1.23;;
17631;SDS011;8934;51.194;17.150;2023-12-20T16:07:58;5.82;;;2.05;;
17631;SDS011;8934;51.194;17.150;2023-12-20T16:10:46;6.45;;;1.45;;
17631;SDS011;8934;51.194;17.150;2023-12-20T16:13:34;4.10;;;1.35;;
17631;SDS011;8934;51.194;17.150;2023-12-20T16:16:21;5.72;;;1.23;;
17631;SDS011;8934;51.194;17.150;2023-12-20T16:19:09;4.53;;;1.05;;
17631;SDS011;8934;51.194;17.150;2023-12-20T16:21:56;1.65;;;1.08;;
17631;SDS011;8934;51.194;17.150;2023-12-20T16:24:46;5.93;;;2.08;;
17631;SDS011;8934;51.194;17.150;2023-12-20T16:27:34;3.50;;;1.00;;
17631;SDS011;8934;51.194;17.150;2023-12-20T16:30:21;5.88;;;1.60;;
17631;SDS011;8934;51.194;17.150;2023-12-20T16:33:09;1.10;;;1.00;;
17631;SDS011;8934;51.194;17.150;2023-12-20T16:35:58;7.43;;;2.35;;
17631;SDS011;8934;51.194;17.150;2023-12-20T16:38:46;2.88;;;1.05;;
17631;SDS011;8934;51.194;17.150;2023-12-20T16:41:35;4.25;;;2.38;;
17631;SDS011;8934;51.194;17.150;2023-12-20T16:44:22;7.88;;;1.40;;
17631;SDS011;8934;51.194;17.150;2023-12-20T16:47:10;6.72;;;1.95;;
17631;SDS011;8934;51.194;17.150;2023-12-20T16:49:58;5.95;;;1.58;;
17631;SDS011;8934;51.194;17.150;2023-12-20T16:52:48;9.70;;;1.40;;
17631;SDS011;8934;51.194;17.150;2023-12-20T16:55:37;7.05;;;1.45;;
17631;SDS011;8934;51.194;17.150;2023-12-20T16:58:27;3.30;;;1.30;;